createdAt,value
2023-04-15T00:01:20.052Z,6.22
2023-04-15T00:03:47.615Z,5.88
2023-04-15T00:06:14.629Z,5.32
2023-04-15T00:08:41.855Z,6.90
2023-04-15T00:11:08.542Z,7.22
2023-04-15T00:13:35.196Z,5.70
2023-04-15T00:16:02.338Z,6.78
2023-04-15T00:18:32.227Z,7.05
2023-04-15T00:20:59.365Z,6.03
2023-04-15T00:23:26.612Z,5.60
2023-04-15T00:25:53.333Z,7.03
2023-04-15T00:28:19.998Z,6.85
2023-04-15T00:30:47.395Z,6.13
2023-04-15T00:33:16.394Z,6.07
2023-04-15T00:35:43.143Z,6.28
2023-04-15T00:38:09.836Z,6.85
2023-04-15T00:40:36.566Z,6.22
2023-04-15T00:43:04.184Z,6.78
2023-04-15T00:45:31.071Z,7.15
2023-04-15T00:47:58.566Z,7.30
2023-04-15T00:50:25.368Z,6.10
2023-04-15T00:52:52.041Z,6.68
2023-04-15T00:55:19.184Z,6.32
2023-04-15T00:57:46.444Z,6.00
2023-04-15T01:00:13.790Z,6.57
2023-04-15T01:02:40.985Z,6.13
2023-04-15T01:05:08.534Z,6.95
2023-04-15T01:07:35.325Z,7.07
2023-04-15T01:10:04.150Z,6.20
2023-04-15T01:12:33.035Z,6.97
2023-04-15T01:15:01.098Z,6.35
2023-04-15T01:17:28.238Z,6.45
2023-04-15T01:19:58.012Z,6.28
2023-04-15T01:22:26.708Z,6.03
2023-04-15T01:25:35.157Z,6.60
2023-04-15T01:28:02.225Z,5.63
2023-04-15T01:30:29.838Z,6.65
2023-04-15T01:32:56.650Z,6.95
2023-04-15T01:35:23.993Z,7.30
2023-04-15T01:37:51.651Z,6.50
2023-04-15T01:40:18.475Z,7.68
2023-04-15T01:42:45.602Z,8.25
2023-04-15T01:45:14.008Z,7.82
2023-04-15T01:47:40.724Z,8.32
2023-04-15T01:50:10.656Z,9.23
2023-04-15T01:52:37.534Z,8.85
2023-04-15T01:55:04.741Z,9.38
2023-04-15T01:57:31.516Z,9.77
2023-04-15T01:59:58.181Z,11.13
2023-04-15T02:02:25.067Z,9.93
2023-04-15T02:04:51.814Z,10.75
2023-04-15T02:07:18.492Z,10.30
2023-04-15T02:09:46.090Z,10.45
2023-04-15T02:12:13.965Z,9.43
2023-04-15T02:14:40.697Z,10.40
2023-04-15T02:17:08.388Z,8.98
2023-04-15T02:19:35.788Z,9.50
2023-04-15T02:22:03.713Z,8.30
2023-04-15T02:24:31.220Z,8.50
2023-04-15T02:26:57.930Z,7.90
2023-04-15T02:29:24.879Z,7.80
2023-04-15T02:31:51.680Z,7.63
2023-04-15T02:34:18.578Z,9.00
2023-04-15T02:36:46.879Z,8.77
2023-04-15T02:39:16.748Z,8.18
2023-04-15T02:41:43.925Z,9.75
2023-04-15T02:44:12.987Z,9.95
2023-04-15T02:46:41.206Z,13.15
2023-04-15T02:49:08.585Z,12.10
2023-04-15T02:51:36.248Z,23.00
2023-04-15T02:54:02.996Z,17.52
2023-04-15T02:56:30.862Z,23.00
2023-04-15T02:58:58.388Z,22.23
2023-04-15T03:01:26.158Z,18.23
2023-04-15T03:03:52.985Z,17.10
2023-04-15T03:06:19.827Z,16.95
2023-04-15T03:08:46.744Z,19.30
2023-04-15T03:11:15.369Z,20.13
2023-04-15T03:13:43.229Z,19.17
2023-04-15T03:16:21.061Z,19.98
2023-04-15T03:18:47.758Z,25.25
2023-04-15T03:21:14.939Z,19.25
2023-04-15T03:23:41.661Z,17.85
2023-04-15T03:26:08.342Z,15.07
2023-04-15T03:28:36.440Z,15.52
2023-04-15T03:31:03.297Z,17.95
2023-04-15T03:33:30.352Z,16.23
2023-04-15T03:35:57.496Z,16.15
2023-04-15T03:38:24.136Z,14.40
2023-04-15T03:40:50.864Z,12.48
2023-04-15T03:43:17.597Z,10.48
2023-04-15T03:45:44.300Z,10.90
2023-04-15T03:48:17.809Z,10.10
2023-04-15T03:50:46.077Z,11.07
2023-04-15T03:53:12.842Z,11.43
2023-04-15T03:55:39.874Z,12.13
2023-04-15T03:58:06.549Z,11.38
2023-04-15T04:00:33.263Z,10.68
2023-04-15T04:03:00.073Z,11.00
2023-04-15T04:05:26.891Z,11.88
2023-04-15T04:07:53.541Z,10.45
2023-04-15T04:10:20.188Z,9.93
2023-04-15T04:12:46.959Z,9.02
2023-04-15T04:15:13.761Z,10.45
2023-04-15T04:17:40.802Z,9.77
2023-04-15T04:20:08.549Z,9.68
2023-04-15T04:22:41.710Z,9.63
2023-04-15T04:25:10.310Z,9.85
2023-04-15T04:27:37.181Z,8.70
2023-04-15T04:30:05.343Z,11.55
2023-04-15T04:32:32.252Z,9.13
2023-04-15T04:34:58.907Z,9.98
2023-04-15T04:37:25.734Z,7.63
2023-04-15T04:39:52.389Z,8.23
2023-04-15T04:42:19.074Z,8.25
2023-04-15T04:44:45.692Z,8.35
2023-04-15T04:47:12.322Z,8.45
2023-04-15T04:49:38.979Z,7.97
2023-04-15T04:52:06.462Z,8.90
2023-04-15T04:54:33.648Z,8.55
2023-04-15T04:57:00.747Z,8.60
2023-04-15T04:59:27.405Z,9.75
2023-04-15T05:01:54.153Z,9.90
2023-04-15T05:04:20.980Z,9.15
2023-04-15T05:06:47.731Z,9.32
2023-04-15T05:09:14.628Z,9.75
2023-04-15T05:11:41.283Z,9.75
2023-04-15T05:14:07.927Z,9.35
2023-04-15T05:16:34.622Z,8.65
2023-04-15T05:19:01.370Z,8.23
2023-04-15T05:21:28.224Z,8.15
2023-04-15T05:23:54.872Z,9.48
2023-04-15T05:26:22.118Z,8.80
2023-04-15T05:28:49.630Z,9.38
2023-04-15T05:31:16.773Z,8.82
2023-04-15T05:33:43.521Z,9.00
2023-04-15T05:36:10.254Z,8.07
2023-04-15T05:38:37.350Z,9.63
2023-04-15T05:41:04.390Z,8.55
2023-04-15T05:43:31.548Z,8.52
2023-04-15T05:45:58.312Z,9.95
2023-04-15T05:48:24.959Z,8.15
2023-04-15T05:50:51.664Z,8.98
2023-04-15T05:53:18.351Z,8.80
2023-04-15T05:55:45.013Z,8.48
2023-04-15T05:58:12.530Z,8.15
2023-04-15T06:00:39.618Z,8.90
2023-04-15T06:03:06.470Z,8.60
2023-04-15T06:05:34.554Z,7.97
2023-04-15T06:08:01.483Z,8.25
2023-04-15T06:10:28.367Z,9.25
2023-04-15T06:12:55.259Z,8.25
2023-04-15T06:15:22.059Z,9.32
2023-04-15T06:17:48.985Z,8.55
2023-04-15T06:20:16.083Z,8.73
2023-04-15T06:22:42.769Z,9.30
2023-04-15T06:25:09.878Z,8.90
2023-04-15T06:27:37.581Z,9.13
2023-04-15T06:30:05.452Z,9.95
2023-04-15T06:32:33.401Z,11.07
2023-04-15T06:35:00.219Z,9.77
2023-04-15T06:37:27.017Z,11.10
2023-04-15T06:39:53.729Z,10.95
2023-04-15T06:42:20.468Z,10.80
2023-04-15T06:44:48.171Z,11.15
2023-04-15T06:47:15.330Z,11.63
2023-04-15T06:49:43.202Z,11.30
2023-04-15T06:52:11.366Z,11.30
2023-04-15T06:54:38.116Z,10.90
2023-04-15T06:57:04.890Z,10.35
2023-04-15T06:59:31.747Z,10.43
2023-04-15T07:01:58.487Z,9.90
2023-04-15T07:04:25.642Z,10.00
2023-04-15T07:06:52.428Z,9.30
2023-04-15T07:09:19.790Z,8.90
2023-04-15T07:11:46.450Z,8.80
2023-04-15T07:14:13.152Z,8.85
2023-04-15T07:16:39.841Z,7.60
2023-04-15T07:19:06.592Z,7.65
2023-04-15T07:21:33.499Z,8.30
2023-04-15T07:24:00.155Z,7.15
2023-04-15T07:26:26.939Z,6.55
2023-04-15T07:28:53.648Z,6.68
2023-04-15T07:31:20.468Z,6.07
2023-04-15T07:33:47.209Z,6.00
2023-04-15T07:36:14.021Z,4.68
2023-04-15T07:38:40.738Z,4.55
2023-04-15T07:41:07.498Z,4.82
2023-04-15T07:43:34.134Z,5.07
2023-04-15T07:46:00.792Z,4.50
2023-04-15T07:48:27.483Z,5.18
2023-04-15T07:50:54.153Z,5.45
2023-04-15T07:53:21.199Z,5.20
2023-04-15T07:55:47.873Z,5.35
2023-04-15T07:58:14.571Z,5.50
2023-04-15T08:00:41.634Z,4.80
2023-04-15T08:03:08.500Z,5.47
2023-04-15T08:05:35.483Z,5.28
2023-04-15T08:08:02.151Z,4.40
2023-04-15T08:10:30.107Z,4.93
2023-04-15T08:12:57.522Z,3.83
2023-04-15T08:15:24.318Z,3.38
2023-04-15T08:17:51.134Z,3.70
2023-04-15T08:20:17.930Z,9.30
2023-04-15T08:22:44.753Z,3.65
2023-04-15T08:25:11.422Z,4.22
2023-04-15T08:27:38.193Z,3.65
2023-04-15T08:30:06.026Z,3.58
2023-04-15T08:32:32.768Z,4.15
2023-04-15T08:35:00.665Z,3.58
2023-04-15T08:37:27.295Z,3.95
2023-04-15T08:39:54.035Z,4.10
2023-04-15T08:42:32.437Z,3.67
2023-04-15T08:45:01.656Z,2.90
2023-04-15T08:47:32.003Z,3.10
2023-04-15T08:50:01.583Z,2.97
2023-04-15T08:52:28.549Z,2.88
2023-04-15T08:55:00.319Z,3.53
2023-04-15T08:57:28.910Z,3.15
2023-04-15T08:59:58.976Z,3.80
2023-04-15T09:02:27.193Z,3.85
2023-04-15T09:04:54.274Z,62.80
2023-04-15T09:07:21.325Z,4.53
2023-04-15T09:09:49.432Z,4.18
2023-04-15T09:12:17.262Z,4.22
2023-04-15T09:14:47.259Z,4.03
2023-04-15T09:17:18.877Z,4.18
2023-04-15T09:19:46.042Z,4.18
2023-04-15T09:22:13.265Z,4.15
2023-04-15T09:24:42.216Z,3.40
2023-04-15T09:27:09.303Z,3.50
2023-04-15T09:29:36.953Z,2.63
2023-04-15T09:32:14.743Z,2.85
2023-04-15T09:34:41.821Z,2.35
2023-04-15T09:37:10.900Z,1.65
2023-04-15T09:39:56.063Z,1.95
2023-04-15T09:42:26.830Z,1.77
2023-04-15T09:44:53.893Z,2.03
2023-04-15T09:47:33.083Z,2.03
2023-04-15T09:50:01.517Z,1.90
2023-04-15T09:52:29.128Z,1.85
2023-04-15T09:54:59.809Z,1.95
2023-04-15T09:57:35.438Z,2.28
2023-04-15T10:02:34.013Z,2.50
2023-04-15T10:05:01.918Z,2.38
2023-04-15T10:07:29.607Z,2.38
2023-04-15T10:09:56.668Z,2.55
2023-04-15T10:12:23.618Z,2.17
2023-04-15T10:15:04.774Z,2.65
2023-04-15T10:17:35.319Z,2.60
2023-04-15T10:20:04.742Z,2.33
2023-04-15T10:22:33.119Z,2.30
2023-04-15T10:25:01.002Z,2.63
2023-04-15T10:27:28.852Z,2.15
2023-04-15T10:29:57.167Z,2.30
2023-04-15T10:32:25.641Z,2.33
2023-04-15T10:34:54.595Z,2.85
2023-04-15T10:37:38.926Z,2.45
2023-04-15T10:40:28.255Z,2.63
2023-04-15T10:42:56.931Z,2.53
2023-04-15T10:45:28.552Z,2.20
2023-04-15T10:47:57.233Z,1.90
2023-04-15T10:50:27.759Z,1.60
2023-04-15T10:52:54.476Z,1.90
2023-04-15T10:55:24.447Z,2.40
2023-04-15T10:57:58.134Z,2.30
2023-04-15T11:00:28.405Z,2.42
2023-04-15T11:03:06.216Z,2.25
2023-04-15T11:05:42.507Z,2.67
2023-04-15T11:08:10.944Z,2.38
2023-04-15T11:10:37.548Z,2.25
2023-04-15T11:13:15.522Z,2.05
2023-04-15T11:15:47.073Z,2.15
2023-04-15T11:18:22.339Z,2.42
2023-04-15T11:20:59.969Z,2.50
2023-04-15T11:23:46.861Z,2.80
2023-04-15T11:26:13.851Z,2.58
2023-04-15T11:28:44.796Z,2.80
2023-04-15T11:31:12.695Z,3.17
2023-04-15T11:33:55.557Z,3.05
2023-04-15T11:36:28.993Z,3.60
2023-04-15T11:38:57.794Z,4.40
2023-04-15T11:41:24.868Z,5.95
2023-04-15T11:43:52.269Z,5.22
2023-04-15T11:46:19.303Z,4.57
2023-04-15T11:48:47.320Z,3.63
2023-04-15T11:51:14.913Z,4.93
2023-04-15T11:53:47.343Z,4.38
2023-04-15T11:56:22.128Z,3.65
2023-04-15T11:58:53.053Z,3.07
2023-04-15T12:01:19.962Z,3.42
2023-04-15T12:03:48.311Z,4.93
2023-04-15T12:06:25.693Z,5.38
2023-04-15T12:08:55.424Z,5.35
2023-04-15T12:11:31.348Z,4.82
2023-04-15T12:14:04.078Z,5.90
2023-04-15T12:16:31.699Z,4.90
2023-04-15T12:19:00.473Z,4.15
2023-04-15T12:21:34.706Z,5.05
2023-04-15T12:24:07.897Z,4.85
2023-04-15T12:26:45.892Z,4.50
2023-04-15T12:29:15.295Z,4.18
2023-04-15T12:32:04.017Z,4.22
2023-04-15T12:34:33.363Z,3.72
2023-04-15T12:37:02.405Z,3.33
2023-04-15T12:39:35.006Z,3.85
2023-04-15T12:42:01.789Z,7.35
2023-04-15T12:44:28.987Z,3.15
2023-04-15T12:46:55.953Z,6.18
2023-04-15T12:49:24.287Z,4.30
2023-04-15T12:51:53.916Z,4.15
2023-04-15T12:54:21.581Z,3.58
2023-04-15T12:56:50.746Z,3.75
2023-04-15T12:59:18.675Z,3.83
2023-04-15T13:01:47.390Z,4.13
2023-04-15T13:04:15.505Z,3.15
2023-04-15T13:06:43.283Z,2.88
2023-04-15T13:09:10.053Z,3.70
2023-04-15T13:11:37.114Z,2.72
2023-04-15T13:14:07.126Z,2.67
2023-04-15T13:16:34.591Z,4.75
2023-04-15T13:19:03.454Z,6.05
2023-04-15T13:21:34.954Z,2.70
2023-04-15T13:24:02.072Z,2.65
2023-04-15T13:26:29.145Z,2.78
2023-04-15T13:28:56.294Z,3.22
2023-04-15T13:31:23.051Z,3.38
2023-04-15T13:33:49.703Z,3.55
2023-04-15T13:36:16.574Z,3.28
2023-04-15T13:38:43.317Z,4.05
2023-04-15T13:41:10.424Z,4.00
2023-04-15T13:43:37.521Z,4.05
2023-04-15T13:46:04.397Z,3.65
2023-04-15T13:48:31.555Z,3.90
2023-04-15T13:50:58.210Z,3.70
2023-04-15T13:53:33.976Z,3.03
2023-04-15T13:56:09.074Z,3.25
2023-04-15T13:58:37.831Z,3.30
2023-04-15T14:01:06.290Z,3.75
2023-04-15T14:03:35.852Z,3.67
2023-04-15T14:06:03.042Z,3.90
2023-04-15T14:08:30.054Z,3.45
2023-04-15T14:10:57.622Z,3.15
2023-04-15T14:13:27.075Z,2.63
2023-04-15T14:15:53.838Z,1.98
2023-04-15T14:18:20.567Z,2.47
2023-04-15T14:20:47.334Z,2.28
2023-04-15T14:23:14.058Z,2.28
2023-04-15T14:25:40.914Z,2.67
2023-04-15T14:28:07.758Z,2.25
2023-04-15T14:30:34.760Z,2.45
2023-04-15T14:33:01.805Z,2.75
2023-04-15T14:35:31.275Z,2.45
2023-04-15T14:37:58.249Z,2.55
2023-04-15T14:40:27.475Z,2.60
2023-04-15T14:42:54.369Z,2.72
2023-04-15T14:45:21.062Z,2.75
2023-04-15T14:47:47.993Z,2.22
2023-04-15T14:50:14.753Z,2.35
2023-04-15T14:52:44.776Z,8.18
2023-04-15T14:55:12.685Z,9.63
2023-04-15T14:57:42.201Z,3.97
2023-04-15T15:00:12.780Z,3.75
2023-04-15T15:02:43.642Z,2.50
2023-04-15T15:05:11.856Z,2.72
2023-04-15T15:07:40.827Z,2.85
2023-04-15T15:10:08.722Z,2.25
2023-04-15T15:12:35.948Z,2.50
2023-04-15T15:15:12.371Z,2.28
2023-04-15T15:17:42.852Z,2.78
2023-04-15T15:20:10.114Z,2.35
2023-04-15T15:22:36.811Z,2.38
2023-04-15T15:25:03.964Z,2.63
2023-04-15T15:27:30.691Z,11.35
2023-04-15T15:29:57.344Z,3.47
2023-04-15T15:32:24.283Z,10.95
2023-04-15T15:34:51.579Z,2.58
2023-04-15T15:37:18.357Z,2.15
2023-04-15T15:39:45.078Z,2.75
2023-04-15T15:42:11.841Z,1.95
2023-04-15T15:44:39.015Z,2.22
2023-04-15T15:47:06.053Z,2.40
2023-04-15T15:49:33.416Z,2.10
2023-04-15T15:52:00.932Z,2.63
2023-04-15T15:54:27.654Z,3.60
2023-04-15T15:56:54.362Z,3.35
2023-04-15T15:59:21.829Z,2.40
2023-04-15T16:01:49.310Z,2.00
2023-04-15T16:04:16.305Z,3.22
2023-04-15T16:06:44.912Z,2.38
2023-04-15T16:09:11.828Z,2.05
2023-04-15T16:11:39.157Z,2.92
2023-04-15T16:14:06.010Z,1.98
2023-04-15T16:16:32.813Z,2.20
2023-04-15T16:18:59.810Z,2.20
2023-04-15T16:21:27.233Z,2.35
2023-04-15T16:23:53.944Z,2.00
2023-04-15T16:26:20.631Z,2.58
2023-04-15T16:28:47.218Z,2.45
2023-04-15T16:31:13.864Z,2.28
2023-04-15T16:33:40.689Z,2.70
2023-04-15T16:36:07.373Z,1.52
2023-04-15T16:38:34.018Z,2.30
2023-04-15T16:41:01.735Z,2.25
2023-04-15T16:43:29.071Z,2.10
2023-04-15T16:45:55.954Z,1.85
2023-04-15T16:48:22.654Z,2.50
2023-04-15T16:50:49.378Z,2.40
2023-04-15T16:53:16.290Z,2.22
2023-04-15T16:55:42.972Z,2.10
2023-04-15T16:58:09.636Z,2.17
2023-04-15T17:00:37.013Z,1.98
2023-04-15T17:03:05.537Z,2.17
2023-04-15T17:05:32.769Z,2.13
2023-04-15T17:07:59.651Z,2.08
2023-04-15T17:10:26.728Z,1.77
2023-04-15T17:12:56.323Z,2.90
2023-04-15T17:15:23.307Z,1.98
2023-04-15T17:17:50.104Z,3.22
2023-04-15T17:20:20.122Z,2.50
2023-04-15T17:22:48.468Z,2.00
2023-04-15T17:25:15.377Z,2.58
2023-04-15T17:27:42.043Z,2.28
2023-04-15T17:30:09.367Z,2.28
2023-04-15T17:32:36.605Z,2.20
2023-04-15T17:35:07.364Z,1.85
2023-04-15T17:37:34.675Z,1.73
2023-04-15T17:40:01.785Z,2.55
2023-04-15T17:42:28.678Z,2.42
2023-04-15T17:44:55.306Z,1.80
2023-04-15T17:47:22.106Z,1.85
2023-04-15T17:49:48.829Z,2.15
2023-04-15T17:52:15.582Z,2.95
2023-04-15T17:54:42.339Z,3.17
2023-04-15T17:57:09.534Z,2.63
2023-04-15T17:59:36.335Z,2.30
2023-04-15T18:02:03.177Z,2.70
2023-04-15T18:04:30.422Z,2.40
2023-04-15T18:06:57.201Z,2.72
2023-04-15T18:09:23.968Z,3.10
2023-04-15T18:11:50.794Z,3.05
2023-04-15T18:14:30.593Z,2.78
2023-04-15T18:17:00.724Z,3.03
2023-04-15T18:19:27.696Z,3.20
2023-04-15T18:21:54.405Z,3.58
2023-04-15T18:24:21.149Z,3.45
2023-04-15T18:26:49.192Z,3.25
2023-04-15T18:29:18.495Z,3.00
2023-04-15T18:31:45.301Z,2.90
2023-04-15T18:34:12.521Z,3.28
2023-04-15T18:36:39.303Z,3.60
2023-04-15T18:39:06.406Z,3.03
2023-04-15T18:41:33.306Z,3.15
2023-04-15T18:43:59.976Z,3.55
2023-04-15T18:46:27.832Z,2.95
2023-04-15T18:48:54.476Z,4.88
2023-04-15T18:51:21.360Z,4.10
2023-04-15T18:53:48.037Z,3.10
2023-04-15T18:56:14.709Z,3.55
2023-04-15T18:59:10.295Z,3.22
2023-04-15T19:01:28.914Z,3.40
2023-04-15T19:03:55.650Z,3.55
2023-04-15T19:06:22.364Z,4.75
2023-04-15T19:08:49.060Z,3.25
2023-04-15T19:11:15.811Z,3.50
2023-04-15T19:13:42.463Z,3.30
2023-04-15T19:16:09.379Z,3.80
2023-04-15T19:18:36.106Z,3.95
2023-04-15T19:21:03.948Z,4.00
2023-04-15T19:23:31.822Z,3.40
2023-04-15T19:25:58.828Z,4.13
2023-04-15T19:28:28.101Z,3.97
2023-04-15T19:30:55.168Z,4.13
2023-04-15T19:33:22.095Z,3.58
2023-04-15T19:35:50.050Z,4.95
2023-04-15T19:38:16.986Z,5.03
2023-04-15T19:40:43.984Z,4.47
2023-04-15T19:43:10.678Z,5.18
2023-04-15T19:45:37.576Z,3.40
2023-04-15T19:48:06.171Z,4.07
2023-04-15T19:50:33.061Z,3.30
2023-04-15T19:52:59.727Z,4.15
2023-04-15T19:55:26.450Z,3.78
2023-04-15T19:57:53.138Z,3.58
2023-04-15T20:00:20.260Z,3.90
2023-04-15T20:02:47.140Z,5.50
2023-04-15T20:05:14.043Z,4.68
2023-04-15T20:07:42.556Z,4.63
2023-04-15T20:10:12.999Z,7.15
2023-04-15T20:12:50.774Z,5.95
2023-04-15T20:15:19.677Z,5.50
2023-04-15T20:17:46.415Z,5.38
2023-04-15T20:20:13.158Z,5.82
2023-04-15T20:22:39.926Z,5.00
2023-04-15T20:25:07.358Z,5.43
2023-04-15T20:27:34.046Z,6.97
2023-04-15T20:30:01.141Z,5.45
2023-04-15T20:32:28.418Z,5.93
2023-04-15T20:34:55.270Z,5.40
2023-04-15T20:37:22.422Z,7.20
2023-04-15T20:39:49.461Z,5.82
2023-04-15T20:42:16.277Z,6.32
2023-04-15T20:44:42.941Z,4.72
2023-04-15T20:47:09.873Z,4.65
2023-04-15T20:49:38.293Z,4.55
2023-04-15T20:52:06.807Z,4.25
2023-04-15T20:54:33.903Z,4.10
2023-04-15T20:57:01.721Z,4.95
2023-04-15T20:59:28.581Z,4.68
2023-04-15T21:01:56.877Z,3.72
2023-04-15T21:04:24.480Z,4.10
2023-04-15T21:06:52.228Z,3.95
2023-04-15T21:09:19.104Z,4.50
2023-04-15T21:12:00.504Z,3.90
2023-04-15T21:14:28.253Z,3.50
2023-04-15T21:16:56.424Z,3.60
2023-04-15T21:19:23.151Z,3.40
2023-04-15T21:21:49.874Z,3.10
2023-04-15T21:24:16.573Z,3.35
2023-04-15T21:26:43.216Z,4.45
2023-04-15T21:29:11.703Z,3.30
2023-04-15T21:31:40.490Z,3.60
2023-04-15T21:34:07.208Z,4.20
2023-04-15T21:36:34.212Z,3.55
2023-04-15T21:39:01.120Z,3.78
2023-04-15T21:41:28.091Z,3.78
2023-04-15T21:43:54.840Z,3.05
2023-04-15T21:46:25.434Z,3.65
2023-04-15T21:48:59.324Z,3.33
2023-04-15T21:51:26.599Z,4.18
2023-04-15T21:53:53.270Z,3.30
2023-04-15T21:56:24.252Z,4.50
2023-04-15T21:58:56.730Z,3.95
2023-04-15T22:01:24.178Z,3.80
2023-04-15T22:03:51.432Z,3.92
2023-04-15T22:06:18.380Z,5.50
2023-04-15T22:08:56.130Z,4.18
2023-04-15T22:11:27.034Z,3.83
2023-04-15T22:13:54.639Z,4.22
2023-04-15T22:16:21.520Z,3.25
2023-04-15T22:18:48.506Z,4.15
2023-04-15T22:21:15.243Z,3.97
2023-04-15T22:23:42.029Z,4.20
2023-04-15T22:26:08.660Z,4.40
2023-04-15T22:28:35.538Z,4.50
2023-04-15T22:31:02.459Z,4.57
2023-04-15T22:33:29.450Z,4.93
2023-04-15T22:35:56.839Z,4.88
2023-04-15T22:38:24.711Z,4.53
2023-04-15T22:40:53.888Z,5.63
2023-04-15T22:43:20.692Z,4.47
2023-04-15T22:45:51.185Z,4.07
2023-04-15T22:48:18.971Z,4.45
2023-04-15T22:50:45.891Z,5.38
2023-04-15T22:53:12.927Z,4.47
2023-04-15T22:55:39.596Z,4.05
2023-04-15T22:58:06.321Z,3.85
2023-04-15T23:00:33.019Z,4.70
2023-04-15T23:02:59.897Z,5.20
2023-04-15T23:05:27.566Z,3.65
2023-04-15T23:07:54.354Z,4.43
2023-04-15T23:10:21.155Z,4.13
2023-04-15T23:12:47.905Z,4.68
2023-04-15T23:15:14.592Z,5.28
2023-04-15T23:17:43.016Z,4.65
2023-04-15T23:20:11.215Z,4.60
2023-04-15T23:22:38.619Z,4.50
2023-04-15T23:25:06.168Z,4.65
2023-04-15T23:27:32.994Z,4.65
2023-04-15T23:29:59.651Z,4.35
2023-04-15T23:32:27.254Z,5.35
2023-04-15T23:34:54.157Z,6.07
2023-04-15T23:37:20.900Z,4.50
2023-04-15T23:39:47.528Z,5.35
2023-04-15T23:42:14.248Z,5.32
2023-04-15T23:44:40.867Z,4.88
2023-04-15T23:47:07.525Z,6.32
2023-04-15T23:49:34.251Z,5.75
2023-04-15T23:52:00.928Z,5.60
2023-04-15T23:54:27.604Z,5.82
2023-04-15T23:56:54.306Z,5.35
2023-04-15T23:59:20.948Z,6.03
